sensor_id;sensor_type;location;lat;lon;timestamp;P1;durP1;ratioP1;P2;durP2;ratioP2
6300;SDS011;3183;51.010;6.898;2023-05-07T00:00:00;11.50;;;4.80;;
6300;SDS011;3183;51.010;6.898;2023-05-07T00:02:28;7.90;;;5.07;;
6300;SDS011;3183;51.010;6.898;2023-05-07T00:04:55;5.40;;;3.67;;
6300;SDS011;3183;51.010;6.898;2023-05-07T00:07:22;6.27;;;4.80;;
6300;SDS011;3183;51.010;6.898;2023-05-07T00:09:51;9.23;;;5.30;;
6300;SDS011;3183;51.010;6.898;2023-05-07T00:12:18;5.43;;;4.20;;
6300;SDS011;3183;51.010;6.898;2023-05-07T00:14:45;9.70;;;4.57;;
6300;SDS011;3183;51.010;6.898;2023-05-07T00:17:12;6.53;;;4.90;;
6300;SDS011;3183;51.010;6.898;2023-05-07T00:19:39;8.13;;;4.50;;
6300;SDS011;3183;51.010;6.898;2023-05-07T00:22:06;7.33;;;5.00;;
6300;SDS011;3183;51.010;6.898;2023-05-07T00:24:34;7.13;;;4.70;;
6300;SDS011;3183;51.010;6.898;2023-05-07T00:27:02;7.60;;;4.33;;
6300;SDS011;3183;51.010;6.898;2023-05-07T00:29:29;8.80;;;4.60;;
6300;SDS011;3183;51.010;6.898;2023-05-07T00:31:56;8.83;;;4.57;;
6300;SDS011;3183;51.010;6.898;2023-05-07T00:34:23;6.37;;;4.73;;
6300;SDS011;3183;51.010;6.898;2023-05-07T00:36:50;5.10;;;4.03;;
6300;SDS011;3183;51.010;6.898;2023-05-07T00:39:18;7.70;;;4.82;;
6300;SDS011;3183;51.010;6.898;2023-05-07T00:41:45;6.17;;;4.20;;
6300;SDS011;3183;51.010;6.898;2023-05-07T00:44:13;4.87;;;4.07;;
6300;SDS011;3183;51.010;6.898;2023-05-07T00:46:40;7.13;;;4.57;;
6300;SDS011;3183;51.010;6.898;2023-05-07T00:49:07;6.63;;;4.57;;
6300;SDS011;3183;51.010;6.898;2023-05-07T00:51:35;5.70;;;4.40;;
6300;SDS011;3183;51.010;6.898;2023-05-07T00:54:02;4.70;;;3.53;;
6300;SDS011;3183;51.010;6.898;2023-05-07T00:56:29;6.60;;;4.30;;
6300;SDS011;3183;51.010;6.898;2023-05-07T00:58:57;7.27;;;3.80;;
6300;SDS011;3183;51.010;6.898;2023-05-07T01:01:25;5.10;;;4.10;;
6300;SDS011;3183;51.010;6.898;2023-05-07T01:03:52;8.50;;;4.40;;
6300;SDS011;3183;51.010;6.898;2023-05-07T01:06:20;11.00;;;3.97;;
6300;SDS011;3183;51.010;6.898;2023-05-07T01:08:47;10.47;;;5.40;;
6300;SDS011;3183;51.010;6.898;2023-05-07T01:11:15;4.93;;;3.70;;
6300;SDS011;3183;51.010;6.898;2023-05-07T01:13:44;8.00;;;3.90;;
6300;SDS011;3183;51.010;6.898;2023-05-07T01:16:11;5.40;;;4.00;;
6300;SDS011;3183;51.010;6.898;2023-05-07T01:18:40;5.30;;;3.80;;
6300;SDS011;3183;51.010;6.898;2023-05-07T01:21:07;6.93;;;3.60;;
6300;SDS011;3183;51.010;6.898;2023-05-07T01:23:38;5.40;;;3.70;;
6300;SDS011;3183;51.010;6.898;2023-05-07T01:26:06;5.00;;;3.50;;
6300;SDS011;3183;51.010;6.898;2023-05-07T01:28:33;7.03;;;3.93;;
6300;SDS011;3183;51.010;6.898;2023-05-07T01:31:01;5.82;;;3.75;;
6300;SDS011;3183;51.010;6.898;2023-05-07T01:33:29;6.80;;;3.57;;
6300;SDS011;3183;51.010;6.898;2023-05-07T01:35:58;5.07;;;3.30;;
6300;SDS011;3183;51.010;6.898;2023-05-07T01:38:27;8.50;;;3.80;;
6300;SDS011;3183;51.010;6.898;2023-05-07T01:40:56;3.50;;;2.97;;
6300;SDS011;3183;51.010;6.898;2023-05-07T01:43:24;6.10;;;3.60;;
6300;SDS011;3183;51.010;6.898;2023-05-07T01:45:51;8.67;;;3.47;;
6300;SDS011;3183;51.010;6.898;2023-05-07T01:48:19;6.30;;;3.13;;
6300;SDS011;3183;51.010;6.898;2023-05-07T01:50:46;5.80;;;3.70;;
6300;SDS011;3183;51.010;6.898;2023-05-07T01:53:14;7.93;;;3.00;;
6300;SDS011;3183;51.010;6.898;2023-05-07T01:55:41;5.40;;;3.17;;
6300;SDS011;3183;51.010;6.898;2023-05-07T01:58:09;5.47;;;3.60;;
6300;SDS011;3183;51.010;6.898;2023-05-07T02:00:36;4.80;;;3.53;;
6300;SDS011;3183;51.010;6.898;2023-05-07T02:03:03;5.40;;;3.30;;
6300;SDS011;3183;51.010;6.898;2023-05-07T02:05:31;4.60;;;3.47;;
6300;SDS011;3183;51.010;6.898;2023-05-07T02:07:58;4.90;;;3.47;;
6300;SDS011;3183;51.010;6.898;2023-05-07T02:10:25;3.80;;;3.10;;
6300;SDS011;3183;51.010;6.898;2023-05-07T02:12:52;4.53;;;3.60;;
6300;SDS011;3183;51.010;6.898;2023-05-07T02:15:20;6.33;;;3.67;;
6300;SDS011;3183;51.010;6.898;2023-05-07T02:18:00;5.27;;;3.23;;
6300;SDS011;3183;51.010;6.898;2023-05-07T02:20:27;7.60;;;4.27;;
6300;SDS011;3183;51.010;6.898;2023-05-07T02:22:54;12.00;;;3.47;;
6300;SDS011;3183;51.010;6.898;2023-05-07T02:25:21;4.57;;;3.00;;
6300;SDS011;3183;51.010;6.898;2023-05-07T02:27:48;4.17;;;2.90;;
6300;SDS011;3183;51.010;6.898;2023-05-07T02:30:15;4.37;;;2.83;;
6300;SDS011;3183;51.010;6.898;2023-05-07T02:32:44;4.30;;;3.33;;
6300;SDS011;3183;51.010;6.898;2023-05-07T02:35:11;8.67;;;3.10;;
6300;SDS011;3183;51.010;6.898;2023-05-07T02:37:38;6.93;;;3.00;;
6300;SDS011;3183;51.010;6.898;2023-05-07T02:40:05;4.37;;;3.40;;
6300;SDS011;3183;51.010;6.898;2023-05-07T02:42:32;5.33;;;3.00;;
6300;SDS011;3183;51.010;6.898;2023-05-07T02:45:00;6.10;;;3.83;;
6300;SDS011;3183;51.010;6.898;2023-05-07T02:47:27;7.60;;;3.53;;
6300;SDS011;3183;51.010;6.898;2023-05-07T02:49:55;3.70;;;3.07;;
6300;SDS011;3183;51.010;6.898;2023-05-07T02:52:22;5.03;;;3.20;;
6300;SDS011;3183;51.010;6.898;2023-05-07T02:54:50;6.50;;;3.10;;
6300;SDS011;3183;51.010;6.898;2023-05-07T02:57:17;5.97;;;3.60;;
6300;SDS011;3183;51.010;6.898;2023-05-07T02:59:44;4.63;;;3.30;;
6300;SDS011;3183;51.010;6.898;2023-05-07T03:02:11;4.73;;;3.20;;
6300;SDS011;3183;51.010;6.898;2023-05-07T03:04:39;5.73;;;3.73;;
6300;SDS011;3183;51.010;6.898;2023-05-07T03:07:08;4.37;;;3.17;;
6300;SDS011;3183;51.010;6.898;2023-05-07T03:09:35;8.70;;;3.80;;
6300;SDS011;3183;51.010;6.898;2023-05-07T03:12:02;5.57;;;3.93;;
6300;SDS011;3183;51.010;6.898;2023-05-07T03:14:29;4.80;;;3.60;;
6300;SDS011;3183;51.010;6.898;2023-05-07T03:16:56;5.87;;;3.97;;
6300;SDS011;3183;51.010;6.898;2023-05-07T03:19:23;5.77;;;3.70;;
6300;SDS011;3183;51.010;6.898;2023-05-07T03:21:50;5.53;;;3.53;;
6300;SDS011;3183;51.010;6.898;2023-05-07T03:24:19;8.80;;;4.77;;
6300;SDS011;3183;51.010;6.898;2023-05-07T03:26:46;5.93;;;3.40;;
6300;SDS011;3183;51.010;6.898;2023-05-07T03:29:13;5.87;;;3.90;;
6300;SDS011;3183;51.010;6.898;2023-05-07T03:31:40;6.10;;;3.90;;
6300;SDS011;3183;51.010;6.898;2023-05-07T03:34:07;4.20;;;3.57;;
6300;SDS011;3183;51.010;6.898;2023-05-07T03:36:34;8.10;;;3.47;;
6300;SDS011;3183;51.010;6.898;2023-05-07T03:39:01;3.83;;;3.37;;
6300;SDS011;3183;51.010;6.898;2023-05-07T03:41:30;5.37;;;3.80;;
6300;SDS011;3183;51.010;6.898;2023-05-07T03:43:57;4.93;;;3.30;;
6300;SDS011;3183;51.010;6.898;2023-05-07T03:46:24;8.63;;;4.07;;
6300;SDS011;3183;51.010;6.898;2023-05-07T03:48:53;4.50;;;3.33;;
6300;SDS011;3183;51.010;6.898;2023-05-07T03:51:20;5.10;;;3.80;;
6300;SDS011;3183;51.010;6.898;2023-05-07T03:53:47;5.17;;;4.13;;
6300;SDS011;3183;51.010;6.898;2023-05-07T03:56:14;4.20;;;3.63;;
6300;SDS011;3183;51.010;6.898;2023-05-07T03:58:42;5.43;;;3.70;;
6300;SDS011;3183;51.010;6.898;2023-05-07T04:01:10;7.10;;;3.60;;
6300;SDS011;3183;51.010;6.898;2023-05-07T04:03:37;3.90;;;3.03;;
6300;SDS011;3183;51.010;6.898;2023-05-07T04:06:04;8.13;;;4.47;;
6300;SDS011;3183;51.010;6.898;2023-05-07T04:08:31;5.90;;;4.03;;
6300;SDS011;3183;51.010;6.898;2023-05-07T04:10:58;5.40;;;3.87;;
6300;SDS011;3183;51.010;6.898;2023-05-07T04:13:26;5.50;;;3.53;;
6300;SDS011;3183;51.010;6.898;2023-05-07T04:15:54;5.40;;;4.00;;
6300;SDS011;3183;51.010;6.898;2023-05-07T04:18:21;5.20;;;3.30;;
6300;SDS011;3183;51.010;6.898;2023-05-07T04:20:49;10.80;;;3.67;;
6300;SDS011;3183;51.010;6.898;2023-05-07T04:23:16;7.17;;;3.70;;
6300;SDS011;3183;51.010;6.898;2023-05-07T04:25:43;8.97;;;3.80;;
6300;SDS011;3183;51.010;6.898;2023-05-07T04:28:10;6.03;;;4.10;;
6300;SDS011;3183;51.010;6.898;2023-05-07T04:30:37;7.90;;;3.20;;
6300;SDS011;3183;51.010;6.898;2023-05-07T04:33:06;4.33;;;3.30;;
6300;SDS011;3183;51.010;6.898;2023-05-07T04:35:33;4.37;;;3.40;;
6300;SDS011;3183;51.010;6.898;2023-05-07T04:38:00;8.07;;;4.17;;
6300;SDS011;3183;51.010;6.898;2023-05-07T04:40:27;4.50;;;3.67;;
6300;SDS011;3183;51.010;6.898;2023-05-07T04:42:55;6.30;;;3.60;;
6300;SDS011;3183;51.010;6.898;2023-05-07T04:45:22;4.10;;;2.90;;
6300;SDS011;3183;51.010;6.898;2023-05-07T04:47:49;6.40;;;3.23;;
6300;SDS011;3183;51.010;6.898;2023-05-07T04:50:17;4.07;;;3.00;;
6300;SDS011;3183;51.010;6.898;2023-05-07T04:52:45;5.97;;;3.07;;
6300;SDS011;3183;51.010;6.898;2023-05-07T04:55:12;4.33;;;3.57;;
6300;SDS011;3183;51.010;6.898;2023-05-07T04:57:39;3.90;;;3.20;;
6300;SDS011;3183;51.010;6.898;2023-05-07T05:00:07;7.80;;;3.00;;
6300;SDS011;3183;51.010;6.898;2023-05-07T05:02:35;4.95;;;2.97;;
6300;SDS011;3183;51.010;6.898;2023-05-07T05:05:02;3.20;;;2.47;;
6300;SDS011;3183;51.010;6.898;2023-05-07T05:07:30;5.83;;;2.50;;
6300;SDS011;3183;51.010;6.898;2023-05-07T05:09:58;5.20;;;2.97;;
6300;SDS011;3183;51.010;6.898;2023-05-07T05:12:25;4.57;;;3.17;;
6300;SDS011;3183;51.010;6.898;2023-05-07T05:14:52;4.33;;;2.90;;
6300;SDS011;3183;51.010;6.898;2023-05-07T05:17:19;6.57;;;2.43;;
6300;SDS011;3183;51.010;6.898;2023-05-07T05:19:46;5.27;;;2.57;;
6300;SDS011;3183;51.010;6.898;2023-05-07T05:22:13;4.17;;;2.63;;
6300;SDS011;3183;51.010;6.898;2023-05-07T05:24:41;3.53;;;2.50;;
6300;SDS011;3183;51.010;6.898;2023-05-07T05:27:08;2.75;;;2.20;;
6300;SDS011;3183;51.010;6.898;2023-05-07T05:29:36;5.40;;;2.13;;
6300;SDS011;3183;51.010;6.898;2023-05-07T05:32:03;11.07;;;2.30;;
6300;SDS011;3183;51.010;6.898;2023-05-07T05:34:30;3.80;;;2.33;;
6300;SDS011;3183;51.010;6.898;2023-05-07T05:36:58;3.53;;;3.22;;
6300;SDS011;3183;51.010;6.898;2023-05-07T05:39:25;5.40;;;2.60;;
6300;SDS011;3183;51.010;6.898;2023-05-07T05:41:54;3.60;;;2.10;;
6300;SDS011;3183;51.010;6.898;2023-05-07T05:44:21;7.30;;;3.40;;
6300;SDS011;3183;51.010;6.898;2023-05-07T05:46:48;3.17;;;2.67;;
6300;SDS011;3183;51.010;6.898;2023-05-07T05:49:15;3.57;;;2.63;;
6300;SDS011;3183;51.010;6.898;2023-05-07T05:51:42;3.17;;;2.00;;
6300;SDS011;3183;51.010;6.898;2023-05-07T05:54:10;3.60;;;2.10;;
6300;SDS011;3183;51.010;6.898;2023-05-07T05:56:37;12.83;;;2.57;;
6300;SDS011;3183;51.010;6.898;2023-05-07T05:59:05;9.48;;;2.30;;
6300;SDS011;3183;51.010;6.898;2023-05-07T06:01:32;4.10;;;2.23;;
6300;SDS011;3183;51.010;6.898;2023-05-07T06:03:59;3.17;;;2.43;;
6300;SDS011;3183;51.010;6.898;2023-05-07T06:06:26;3.37;;;2.10;;
6300;SDS011;3183;51.010;6.898;2023-05-07T06:08:54;4.20;;;2.20;;
6300;SDS011;3183;51.010;6.898;2023-05-07T06:11:21;2.23;;;2.03;;
6300;SDS011;3183;51.010;6.898;2023-05-07T06:13:48;4.33;;;2.27;;
6300;SDS011;3183;51.010;6.898;2023-05-07T06:16:16;2.23;;;2.03;;
6300;SDS011;3183;51.010;6.898;2023-05-07T06:18:43;2.70;;;1.80;;
6300;SDS011;3183;51.010;6.898;2023-05-07T06:21:11;2.57;;;2.30;;
6300;SDS011;3183;51.010;6.898;2023-05-07T06:23:38;2.80;;;2.20;;
6300;SDS011;3183;51.010;6.898;2023-05-07T06:26:06;3.83;;;2.50;;
6300;SDS011;3183;51.010;6.898;2023-05-07T06:28:33;2.97;;;1.90;;
6300;SDS011;3183;51.010;6.898;2023-05-07T06:31:13;6.90;;;2.10;;
6300;SDS011;3183;51.010;6.898;2023-05-07T06:33:42;4.63;;;1.67;;
6300;SDS011;3183;51.010;6.898;2023-05-07T06:36:09;6.13;;;2.20;;
6300;SDS011;3183;51.010;6.898;2023-05-07T06:38:36;4.10;;;1.90;;
6300;SDS011;3183;51.010;6.898;2023-05-07T06:41:05;5.77;;;2.13;;
6300;SDS011;3183;51.010;6.898;2023-05-07T06:43:32;3.50;;;1.80;;
6300;SDS011;3183;51.010;6.898;2023-05-07T06:45:59;4.30;;;2.07;;
6300;SDS011;3183;51.010;6.898;2023-05-07T06:48:26;3.90;;;2.63;;
6300;SDS011;3183;51.010;6.898;2023-05-07T06:50:54;7.20;;;1.97;;
6300;SDS011;3183;51.010;6.898;2023-05-07T06:53:22;3.27;;;2.00;;
6300;SDS011;3183;51.010;6.898;2023-05-07T06:55:49;2.93;;;1.83;;
6300;SDS011;3183;51.010;6.898;2023-05-07T06:58:17;4.77;;;1.90;;
6300;SDS011;3183;51.010;6.898;2023-05-07T07:00:44;3.60;;;2.37;;
6300;SDS011;3183;51.010;6.898;2023-05-07T07:03:11;2.50;;;2.07;;
6300;SDS011;3183;51.010;6.898;2023-05-07T07:05:39;2.60;;;2.07;;
6300;SDS011;3183;51.010;6.898;2023-05-07T07:08:08;2.20;;;1.87;;
6300;SDS011;3183;51.010;6.898;2023-05-07T07:10:35;3.63;;;1.73;;
6300;SDS011;3183;51.010;6.898;2023-05-07T07:13:02;4.00;;;2.00;;
6300;SDS011;3183;51.010;6.898;2023-05-07T07:15:29;3.60;;;2.17;;
6300;SDS011;3183;51.010;6.898;2023-05-07T07:17:56;3.00;;;1.50;;
6300;SDS011;3183;51.010;6.898;2023-05-07T07:20:23;6.90;;;1.90;;
6300;SDS011;3183;51.010;6.898;2023-05-07T07:22:53;6.50;;;1.83;;
6300;SDS011;3183;51.010;6.898;2023-05-07T07:25:22;3.80;;;1.80;;
6300;SDS011;3183;51.010;6.898;2023-05-07T07:27:49;3.90;;;1.97;;
6300;SDS011;3183;51.010;6.898;2023-05-07T07:30:16;3.47;;;1.70;;
6300;SDS011;3183;51.010;6.898;2023-05-07T07:32:43;2.07;;;1.50;;
6300;SDS011;3183;51.010;6.898;2023-05-07T07:35:10;2.27;;;1.40;;
6300;SDS011;3183;51.010;6.898;2023-05-07T07:37:37;4.73;;;2.37;;
6300;SDS011;3183;51.010;6.898;2023-05-07T07:40:05;1.97;;;1.53;;
6300;SDS011;3183;51.010;6.898;2023-05-07T07:42:34;2.97;;;1.53;;
6300;SDS011;3183;51.010;6.898;2023-05-07T07:45:01;2.20;;;1.77;;
6300;SDS011;3183;51.010;6.898;2023-05-07T07:47:28;2.03;;;1.83;;
6300;SDS011;3183;51.010;6.898;2023-05-07T07:49:55;6.90;;;1.30;;
6300;SDS011;3183;51.010;6.898;2023-05-07T07:52:22;4.13;;;1.80;;
6300;SDS011;3183;51.010;6.898;2023-05-07T07:54:50;2.70;;;1.93;;
6300;SDS011;3183;51.010;6.898;2023-05-07T07:57:17;7.40;;;1.67;;
6300;SDS011;3183;51.010;6.898;2023-05-07T07:59:46;2.00;;;1.70;;
6300;SDS011;3183;51.010;6.898;2023-05-07T08:02:13;2.10;;;1.50;;
6300;SDS011;3183;51.010;6.898;2023-05-07T08:04:43;2.73;;;1.80;;
6300;SDS011;3183;51.010;6.898;2023-05-07T08:07:12;2.80;;;1.77;;
6300;SDS011;3183;51.010;6.898;2023-05-07T08:09:39;1.63;;;1.53;;
6300;SDS011;3183;51.010;6.898;2023-05-07T08:12:07;5.00;;;2.10;;
6300;SDS011;3183;51.010;6.898;2023-05-07T08:14:34;2.80;;;1.70;;
6300;SDS011;3183;51.010;6.898;2023-05-07T08:17:04;2.77;;;1.87;;
6300;SDS011;3183;51.010;6.898;2023-05-07T08:19:31;2.03;;;1.77;;
6300;SDS011;3183;51.010;6.898;2023-05-07T08:21:58;2.50;;;1.70;;
6300;SDS011;3183;51.010;6.898;2023-05-07T08:24:26;3.80;;;2.00;;
6300;SDS011;3183;51.010;6.898;2023-05-07T08:26:53;1.77;;;1.30;;
6300;SDS011;3183;51.010;6.898;2023-05-07T08:29:20;2.50;;;1.53;;
6300;SDS011;3183;51.010;6.898;2023-05-07T08:31:47;3.10;;;1.80;;
6300;SDS011;3183;51.010;6.898;2023-05-07T08:34:16;5.30;;;1.98;;
6300;SDS011;3183;51.010;6.898;2023-05-07T08:36:43;2.00;;;1.70;;
6300;SDS011;3183;51.010;6.898;2023-05-07T08:39:12;2.70;;;1.97;;
6300;SDS011;3183;51.010;6.898;2023-05-07T08:41:39;2.70;;;1.60;;
6300;SDS011;3183;51.010;6.898;2023-05-07T08:44:07;2.23;;;1.90;;
6300;SDS011;3183;51.010;6.898;2023-05-07T08:46:38;2.47;;;1.43;;
6300;SDS011;3183;51.010;6.898;2023-05-07T08:49:06;3.30;;;2.03;;
6300;SDS011;3183;51.010;6.898;2023-05-07T08:51:37;4.30;;;1.77;;
6300;SDS011;3183;51.010;6.898;2023-05-07T08:54:04;6.63;;;2.10;;
6300;SDS011;3183;51.010;6.898;2023-05-07T08:56:32;1.43;;;1.30;;
6300;SDS011;3183;51.010;6.898;2023-05-07T08:58:59;3.80;;;1.60;;
6300;SDS011;3183;51.010;6.898;2023-05-07T09:01:27;6.63;;;2.03;;
6300;SDS011;3183;51.010;6.898;2023-05-07T09:03:54;3.70;;;1.83;;
6300;SDS011;3183;51.010;6.898;2023-05-07T09:06:23;4.00;;;1.97;;
6300;SDS011;3183;51.010;6.898;2023-05-07T09:08:53;4.73;;;1.83;;
6300;SDS011;3183;51.010;6.898;2023-05-07T09:11:21;2.80;;;1.63;;
6300;SDS011;3183;51.010;6.898;2023-05-07T09:13:49;3.73;;;1.60;;
6300;SDS011;3183;51.010;6.898;2023-05-07T09:16:16;1.70;;;1.60;;
6300;SDS011;3183;51.010;6.898;2023-05-07T09:18:43;2.10;;;1.90;;
6300;SDS011;3183;51.010;6.898;2023-05-07T09:21:11;3.53;;;1.60;;
6300;SDS011;3183;51.010;6.898;2023-05-07T09:23:41;4.90;;;2.03;;
6300;SDS011;3183;51.010;6.898;2023-05-07T09:26:10;5.33;;;1.50;;
6300;SDS011;3183;51.010;6.898;2023-05-07T09:28:38;2.37;;;1.90;;
6300;SDS011;3183;51.010;6.898;2023-05-07T09:31:08;1.73;;;1.23;;
6300;SDS011;3183;51.010;6.898;2023-05-07T09:33:35;2.63;;;1.37;;
6300;SDS011;3183;51.010;6.898;2023-05-07T09:36:03;2.67;;;2.10;;
6300;SDS011;3183;51.010;6.898;2023-05-07T09:38:31;4.10;;;1.30;;
6300;SDS011;3183;51.010;6.898;2023-05-07T09:41:02;2.90;;;1.80;;
6300;SDS011;3183;51.010;6.898;2023-05-07T09:43:32;7.80;;;1.90;;
6300;SDS011;3183;51.010;6.898;2023-05-07T09:46:01;3.07;;;1.97;;
6300;SDS011;3183;51.010;6.898;2023-05-07T09:48:29;2.80;;;2.00;;
6300;SDS011;3183;51.010;6.898;2023-05-07T09:50:56;2.00;;;1.65;;
6300;SDS011;3183;51.010;6.898;2023-05-07T09:53:25;5.93;;;2.00;;
6300;SDS011;3183;51.010;6.898;2023-05-07T09:55:52;3.00;;;1.80;;
6300;SDS011;3183;51.010;6.898;2023-05-07T09:58:20;3.20;;;1.40;;
6300;SDS011;3183;51.010;6.898;2023-05-07T10:00:50;2.23;;;1.80;;
6300;SDS011;3183;51.010;6.898;2023-05-07T10:03:17;5.90;;;1.67;;
6300;SDS011;3183;51.010;6.898;2023-05-07T10:05:46;3.00;;;1.40;;
6300;SDS011;3183;51.010;6.898;2023-05-07T10:08:14;3.07;;;1.80;;
6300;SDS011;3183;51.010;6.898;2023-05-07T10:10:44;5.43;;;2.10;;
6300;SDS011;3183;51.010;6.898;2023-05-07T10:13:12;2.03;;;1.40;;
6300;SDS011;3183;51.010;6.898;2023-05-07T10:15:39;3.07;;;2.10;;
6300;SDS011;3183;51.010;6.898;2023-05-07T10:18:09;2.03;;;1.60;;
6300;SDS011;3183;51.010;6.898;2023-05-07T10:20:36;2.60;;;1.87;;
6300;SDS011;3183;51.010;6.898;2023-05-07T10:23:04;3.57;;;1.90;;
6300;SDS011;3183;51.010;6.898;2023-05-07T10:25:32;2.90;;;1.60;;
6300;SDS011;3183;51.010;6.898;2023-05-07T10:28:00;2.20;;;1.65;;
6300;SDS011;3183;51.010;6.898;2023-05-07T10:30:32;1.40;;;1.07;;
6300;SDS011;3183;51.010;6.898;2023-05-07T10:33:03;1.97;;;1.50;;
6300;SDS011;3183;51.010;6.898;2023-05-07T10:35:36;4.03;;;1.70;;
6300;SDS011;3183;51.010;6.898;2023-05-07T10:38:07;1.73;;;1.40;;
6300;SDS011;3183;51.010;6.898;2023-05-07T10:40:34;1.70;;;1.50;;
6300;SDS011;3183;51.010;6.898;2023-05-07T10:43:05;2.60;;;1.47;;
6300;SDS011;3183;51.010;6.898;2023-05-07T10:45:33;1.73;;;1.30;;
6300;SDS011;3183;51.010;6.898;2023-05-07T10:48:06;2.50;;;1.20;;
6300;SDS011;3183;51.010;6.898;2023-05-07T10:50:35;1.35;;;1.15;;
6300;SDS011;3183;51.010;6.898;2023-05-07T10:58:45;5.63;;;2.20;;
6300;SDS011;3183;51.010;6.898;2023-05-07T11:01:12;1.87;;;1.30;;
6300;SDS011;3183;51.010;6.898;2023-05-07T11:06:25;3.00;;;1.37;;
6300;SDS011;3183;51.010;6.898;2023-05-07T11:08:53;1.77;;;1.40;;
6300;SDS011;3183;51.010;6.898;2023-05-07T11:11:26;2.37;;;1.30;;
6300;SDS011;3183;51.010;6.898;2023-05-07T11:14:10;1.40;;;1.30;;
6300;SDS011;3183;51.010;6.898;2023-05-07T11:16:37;0.97;;;0.80;;
6300;SDS011;3183;51.010;6.898;2023-05-07T11:19:06;2.40;;;1.30;;
6300;SDS011;3183;51.010;6.898;2023-05-07T11:21:37;5.83;;;1.60;;
6300;SDS011;3183;51.010;6.898;2023-05-07T11:24:05;1.60;;;1.50;;
6300;SDS011;3183;51.010;6.898;2023-05-07T11:26:41;1.83;;;1.30;;
6300;SDS011;3183;51.010;6.898;2023-05-07T11:29:10;4.10;;;1.53;;
6300;SDS011;3183;51.010;6.898;2023-05-07T11:31:37;1.57;;;1.33;;
6300;SDS011;3183;51.010;6.898;2023-05-07T11:34:06;2.27;;;1.70;;
6300;SDS011;3183;51.010;6.898;2023-05-07T11:36:41;3.83;;;1.35;;
6300;SDS011;3183;51.010;6.898;2023-05-07T11:39:22;4.10;;;1.43;;
6300;SDS011;3183;51.010;6.898;2023-05-07T11:41:49;4.93;;;1.97;;
6300;SDS011;3183;51.010;6.898;2023-05-07T11:44:17;2.23;;;1.57;;
6300;SDS011;3183;51.010;6.898;2023-05-07T11:46:44;3.93;;;1.50;;
6300;SDS011;3183;51.010;6.898;2023-05-07T11:49:11;3.28;;;1.40;;
6300;SDS011;3183;51.010;6.898;2023-05-07T11:51:40;2.23;;;1.77;;
6300;SDS011;3183;51.010;6.898;2023-05-07T11:54:08;2.17;;;1.30;;
6300;SDS011;3183;51.010;6.898;2023-05-07T11:56:36;2.57;;;1.77;;
6300;SDS011;3183;51.010;6.898;2023-05-07T11:59:04;3.63;;;2.10;;
6300;SDS011;3183;51.010;6.898;2023-05-07T12:01:31;1.60;;;1.50;;
6300;SDS011;3183;51.010;6.898;2023-05-07T12:03:58;2.35;;;1.55;;
6300;SDS011;3183;51.010;6.898;2023-05-07T12:06:30;3.53;;;1.77;;
6300;SDS011;3183;51.010;6.898;2023-05-07T12:08:58;3.28;;;1.75;;
6300;SDS011;3183;51.010;6.898;2023-05-07T12:11:25;3.13;;;1.80;;
6300;SDS011;3183;51.010;6.898;2023-05-07T12:13:53;4.00;;;1.77;;
6300;SDS011;3183;51.010;6.898;2023-05-07T12:16:21;3.70;;;1.90;;
6300;SDS011;3183;51.010;6.898;2023-05-07T12:18:48;3.90;;;1.53;;
6300;SDS011;3183;51.010;6.898;2023-05-07T12:21:17;2.43;;;1.40;;
6300;SDS011;3183;51.010;6.898;2023-05-07T12:23:44;1.73;;;1.50;;
6300;SDS011;3183;51.010;6.898;2023-05-07T12:26:13;2.30;;;1.70;;
6300;SDS011;3183;51.010;6.898;2023-05-07T12:28:40;9.40;;;1.80;;
6300;SDS011;3183;51.010;6.898;2023-05-07T12:31:07;3.63;;;1.30;;
6300;SDS011;3183;51.010;6.898;2023-05-07T12:33:35;4.50;;;1.80;;
6300;SDS011;3183;51.010;6.898;2023-05-07T12:36:03;4.57;;;1.70;;
6300;SDS011;3183;51.010;6.898;2023-05-07T12:38:34;3.47;;;1.60;;
6300;SDS011;3183;51.010;6.898;2023-05-07T12:41:01;2.33;;;1.50;;
6300;SDS011;3183;51.010;6.898;2023-05-07T12:43:30;4.28;;;1.73;;
6300;SDS011;3183;51.010;6.898;2023-05-07T12:45:59;2.65;;;1.30;;
6300;SDS011;3183;51.010;6.898;2023-05-07T12:48:26;3.57;;;2.27;;
6300;SDS011;3183;51.010;6.898;2023-05-07T12:50:54;1.83;;;1.60;;
6300;SDS011;3183;51.010;6.898;2023-05-07T12:53:22;2.13;;;1.27;;
6300;SDS011;3183;51.010;6.898;2023-05-07T12:55:50;4.03;;;1.30;;
6300;SDS011;3183;51.010;6.898;2023-05-07T12:58:18;2.03;;;1.50;;
6300;SDS011;3183;51.010;6.898;2023-05-07T13:00:48;2.60;;;1.77;;
6300;SDS011;3183;51.010;6.898;2023-05-07T13:03:23;4.97;;;1.67;;
6300;SDS011;3183;51.010;6.898;2023-05-07T13:05:50;4.88;;;1.63;;
6300;SDS011;3183;51.010;6.898;2023-05-07T13:08:24;1.80;;;1.30;;
6300;SDS011;3183;51.010;6.898;2023-05-07T13:10:51;7.17;;;1.80;;
6300;SDS011;3183;51.010;6.898;2023-05-07T13:13:19;2.10;;;1.60;;
6300;SDS011;3183;51.010;6.898;2023-05-07T13:15:47;1.90;;;1.57;;
6300;SDS011;3183;51.010;6.898;2023-05-07T13:18:14;3.70;;;1.80;;
6300;SDS011;3183;51.010;6.898;2023-05-07T13:20:42;3.40;;;1.30;;
6300;SDS011;3183;51.010;6.898;2023-05-07T13:23:09;2.37;;;1.90;;
6300;SDS011;3183;51.010;6.898;2023-05-07T13:25:36;2.80;;;1.57;;
6300;SDS011;3183;51.010;6.898;2023-05-07T13:28:03;2.23;;;1.40;;
6300;SDS011;3183;51.010;6.898;2023-05-07T13:30:30;3.80;;;1.40;;
6300;SDS011;3183;51.010;6.898;2023-05-07T13:32:59;2.40;;;1.47;;
6300;SDS011;3183;51.010;6.898;2023-05-07T13:35:26;2.70;;;1.63;;
6300;SDS011;3183;51.010;6.898;2023-05-07T13:37:53;2.67;;;1.90;;
6300;SDS011;3183;51.010;6.898;2023-05-07T13:40:20;3.87;;;2.33;;
6300;SDS011;3183;51.010;6.898;2023-05-07T13:42:48;2.07;;;1.47;;
6300;SDS011;3183;51.010;6.898;2023-05-07T13:45:15;4.00;;;1.67;;
6300;SDS011;3183;51.010;6.898;2023-05-07T13:47:42;2.07;;;1.53;;
6300;SDS011;3183;51.010;6.898;2023-05-07T13:50:11;3.80;;;1.83;;
6300;SDS011;3183;51.010;6.898;2023-05-07T13:52:40;3.53;;;1.67;;
6300;SDS011;3183;51.010;6.898;2023-05-07T13:55:08;3.17;;;1.70;;
6300;SDS011;3183;51.010;6.898;2023-05-07T13:57:35;2.70;;;1.40;;
6300;SDS011;3183;51.010;6.898;2023-05-07T14:00:03;6.07;;;1.43;;
6300;SDS011;3183;51.010;6.898;2023-05-07T14:02:31;2.90;;;1.50;;
6300;SDS011;3183;51.010;6.898;2023-05-07T14:04:58;2.43;;;1.70;;
6300;SDS011;3183;51.010;6.898;2023-05-07T14:07:27;1.60;;;1.40;;
6300;SDS011;3183;51.010;6.898;2023-05-07T14:09:54;2.90;;;1.67;;
6300;SDS011;3183;51.010;6.898;2023-05-07T14:12:21;3.80;;;1.90;;
6300;SDS011;3183;51.010;6.898;2023-05-07T14:14:49;3.17;;;2.00;;
6300;SDS011;3183;51.010;6.898;2023-05-07T14:17:17;4.73;;;2.20;;
6300;SDS011;3183;51.010;6.898;2023-05-07T14:19:45;2.70;;;2.08;;
6300;SDS011;3183;51.010;6.898;2023-05-07T14:22:13;4.35;;;2.05;;
6300;SDS011;3183;51.010;6.898;2023-05-07T14:24:41;3.70;;;1.50;;
6300;SDS011;3183;51.010;6.898;2023-05-07T14:27:08;2.77;;;1.80;;
6300;SDS011;3183;51.010;6.898;2023-05-07T14:29:36;4.43;;;2.10;;
6300;SDS011;3183;51.010;6.898;2023-05-07T14:32:03;7.67;;;3.07;;
6300;SDS011;3183;51.010;6.898;2023-05-07T14:34:30;6.57;;;2.50;;
6300;SDS011;3183;51.010;6.898;2023-05-07T14:36:57;3.63;;;2.80;;
6300;SDS011;3183;51.010;6.898;2023-05-07T14:39:25;4.23;;;3.37;;
6300;SDS011;3183;51.010;6.898;2023-05-07T14:41:53;7.20;;;3.10;;
6300;SDS011;3183;51.010;6.898;2023-05-07T14:44:21;4.07;;;2.90;;
6300;SDS011;3183;51.010;6.898;2023-05-07T14:46:48;4.37;;;2.43;;
6300;SDS011;3183;51.010;6.898;2023-05-07T14:49:15;2.43;;;2.07;;
6300;SDS011;3183;51.010;6.898;2023-05-07T14:51:43;2.57;;;2.20;;
6300;SDS011;3183;51.010;6.898;2023-05-07T14:54:10;5.23;;;2.97;;
6300;SDS011;3183;51.010;6.898;2023-05-07T14:56:37;2.53;;;2.20;;
6300;SDS011;3183;51.010;6.898;2023-05-07T14:59:06;4.27;;;2.47;;
6300;SDS011;3183;51.010;6.898;2023-05-07T15:01:33;3.80;;;2.67;;
6300;SDS011;3183;51.010;6.898;2023-05-07T15:04:01;3.00;;;2.10;;
6300;SDS011;3183;51.010;6.898;2023-05-07T15:06:28;2.67;;;2.10;;
6300;SDS011;3183;51.010;6.898;2023-05-07T15:08:56;2.80;;;2.00;;
6300;SDS011;3183;51.010;6.898;2023-05-07T15:11:23;3.23;;;1.53;;
6300;SDS011;3183;51.010;6.898;2023-05-07T15:13:50;4.30;;;2.20;;
6300;SDS011;3183;51.010;6.898;2023-05-07T15:16:18;8.90;;;1.93;;
6300;SDS011;3183;51.010;6.898;2023-05-07T15:18:45;2.50;;;2.30;;
6300;SDS011;3183;51.010;6.898;2023-05-07T15:21:13;7.20;;;1.87;;
6300;SDS011;3183;51.010;6.898;2023-05-07T15:23:40;2.13;;;1.93;;
6300;SDS011;3183;51.010;6.898;2023-05-07T15:26:09;3.15;;;1.60;;